sensor_id;sensor_type;location;lat;lon;timestamp;P1;durP1;ratioP1;P2;durP2;ratioP2
21843;SDS011;11084;52.482;9.108;2022-10-23T00:01:24;5.47;;;1.73;;
21843;SDS011;11084;52.482;9.108;2022-10-23T00:03:53;4.43;;;1.73;;
21843;SDS011;11084;52.482;9.108;2022-10-23T00:06:21;3.00;;;1.97;;
21843;SDS011;11084;52.482;9.108;2022-10-23T00:08:48;16.20;;;2.10;;
21843;SDS011;11084;52.482;9.108;2022-10-23T00:11:16;4.43;;;1.90;;
21843;SDS011;11084;52.482;9.108;2022-10-23T00:13:52;8.13;;;1.87;;
21843;SDS011;11084;52.482;9.108;2022-10-23T00:16:21;4.63;;;1.83;;
21843;SDS011;11084;52.482;9.108;2022-10-23T00:18:47;5.07;;;1.77;;
21843;SDS011;11084;52.482;9.108;2022-10-23T00:21:14;4.20;;;1.60;;
21843;SDS011;11084;52.482;9.108;2022-10-23T00:23:41;5.70;;;2.13;;
21843;SDS011;11084;52.482;9.108;2022-10-23T00:26:08;2.43;;;1.63;;
21843;SDS011;11084;52.482;9.108;2022-10-23T00:28:41;14.23;;;1.93;;
21843;SDS011;11084;52.482;9.108;2022-10-23T00:31:13;4.47;;;1.90;;
21843;SDS011;11084;52.482;9.108;2022-10-23T00:33:41;3.77;;;1.80;;
21843;SDS011;11084;52.482;9.108;2022-10-23T00:36:08;5.60;;;1.63;;
21843;SDS011;11084;52.482;9.108;2022-10-23T00:38:36;4.73;;;2.30;;
21843;SDS011;11084;52.482;9.108;2022-10-23T00:41:04;4.50;;;2.37;;
21843;SDS011;11084;52.482;9.108;2022-10-23T00:43:32;8.47;;;2.20;;
21843;SDS011;11084;52.482;9.108;2022-10-23T00:45:58;4.47;;;1.70;;
21843;SDS011;11084;52.482;9.108;2022-10-23T00:48:25;7.03;;;1.83;;
21843;SDS011;11084;52.482;9.108;2022-10-23T00:50:52;3.50;;;1.77;;
21843;SDS011;11084;52.482;9.108;2022-10-23T00:53:20;3.30;;;1.80;;
21843;SDS011;11084;52.482;9.108;2022-10-23T00:55:47;5.23;;;2.07;;
21843;SDS011;11084;52.482;9.108;2022-10-23T00:58:17;5.97;;;2.03;;
21843;SDS011;11084;52.482;9.108;2022-10-23T01:00:50;9.87;;;2.33;;
21843;SDS011;11084;52.482;9.108;2022-10-23T01:03:19;4.87;;;1.83;;
21843;SDS011;11084;52.482;9.108;2022-10-23T01:05:59;6.37;;;1.77;;
21843;SDS011;11084;52.482;9.108;2022-10-23T01:08:42;4.77;;;1.90;;
21843;SDS011;11084;52.482;9.108;2022-10-23T01:11:24;6.10;;;2.20;;
21843;SDS011;11084;52.482;9.108;2022-10-23T01:14:02;2.83;;;1.80;;
21843;SDS011;11084;52.482;9.108;2022-10-23T01:16:48;3.77;;;2.03;;
21843;SDS011;11084;52.482;9.108;2022-10-23T01:19:26;3.77;;;1.90;;
21843;SDS011;11084;52.482;9.108;2022-10-23T01:25:35;2.73;;;1.80;;
21843;SDS011;11084;52.482;9.108;2022-10-23T01:28:46;6.73;;;2.10;;
21843;SDS011;11084;52.482;9.108;2022-10-23T01:31:42;4.43;;;2.13;;
21843;SDS011;11084;52.482;9.108;2022-10-23T01:34:26;3.43;;;1.70;;
21843;SDS011;11084;52.482;9.108;2022-10-23T01:37:08;3.33;;;1.90;;
21843;SDS011;11084;52.482;9.108;2022-10-23T01:39:39;4.83;;;1.83;;
21843;SDS011;11084;52.482;9.108;2022-10-23T01:42:15;5.50;;;2.00;;
21843;SDS011;11084;52.482;9.108;2022-10-23T01:47:54;8.37;;;2.07;;
21843;SDS011;11084;52.482;9.108;2022-10-23T01:50:23;3.03;;;1.90;;
21843;SDS011;11084;52.482;9.108;2022-10-23T01:52:58;10.60;;;2.30;;
21843;SDS011;11084;52.482;9.108;2022-10-23T01:55:25;12.33;;;2.10;;
21843;SDS011;11084;52.482;9.108;2022-10-23T01:57:52;3.37;;;1.83;;
21843;SDS011;11084;52.482;9.108;2022-10-23T02:00:19;5.70;;;2.07;;
21843;SDS011;11084;52.482;9.108;2022-10-23T02:02:51;8.10;;;2.27;;
21843;SDS011;11084;52.482;9.108;2022-10-23T02:05:24;5.83;;;2.23;;
21843;SDS011;11084;52.482;9.108;2022-10-23T02:07:55;8.17;;;2.90;;
21843;SDS011;11084;52.482;9.108;2022-10-23T02:10:23;2.90;;;2.03;;
21843;SDS011;11084;52.482;9.108;2022-10-23T02:13:05;4.00;;;1.80;;
21843;SDS011;11084;52.482;9.108;2022-10-23T02:15:57;5.90;;;2.17;;
21843;SDS011;11084;52.482;9.108;2022-10-23T02:19:27;7.53;;;2.70;;
21843;SDS011;11084;52.482;9.108;2022-10-23T02:22:10;4.03;;;2.17;;
21843;SDS011;11084;52.482;9.108;2022-10-23T02:24:52;4.87;;;2.13;;
21843;SDS011;11084;52.482;9.108;2022-10-23T02:27:23;7.60;;;2.30;;
21843;SDS011;11084;52.482;9.108;2022-10-23T02:30:04;2.90;;;1.83;;
21843;SDS011;11084;52.482;9.108;2022-10-23T02:32:36;8.17;;;2.10;;
21843;SDS011;11084;52.482;9.108;2022-10-23T02:35:06;7.47;;;2.40;;
21843;SDS011;11084;52.482;9.108;2022-10-23T02:37:35;9.07;;;2.20;;
21843;SDS011;11084;52.482;9.108;2022-10-23T02:40:03;4.63;;;2.63;;
21843;SDS011;11084;52.482;9.108;2022-10-23T02:42:38;10.23;;;2.57;;
21843;SDS011;11084;52.482;9.108;2022-10-23T02:45:15;8.13;;;2.43;;
21843;SDS011;11084;52.482;9.108;2022-10-23T02:51:00;8.93;;;2.73;;
21843;SDS011;11084;52.482;9.108;2022-10-23T02:53:42;4.00;;;2.23;;
21843;SDS011;11084;52.482;9.108;2022-10-23T02:56:20;8.40;;;2.43;;
21843;SDS011;11084;52.482;9.108;2022-10-23T03:01:50;8.10;;;2.40;;
21843;SDS011;11084;52.482;9.108;2022-10-23T03:04:36;5.70;;;2.77;;
21843;SDS011;11084;52.482;9.108;2022-10-23T03:07:04;11.60;;;2.47;;
21843;SDS011;11084;52.482;9.108;2022-10-23T03:09:35;5.83;;;2.43;;
21843;SDS011;11084;52.482;9.108;2022-10-23T03:12:02;5.83;;;2.13;;
21843;SDS011;11084;52.482;9.108;2022-10-23T03:14:31;4.60;;;2.23;;
21843;SDS011;11084;52.482;9.108;2022-10-23T03:16:58;4.97;;;2.27;;
21843;SDS011;11084;52.482;9.108;2022-10-23T03:19:25;3.63;;;2.70;;
21843;SDS011;11084;52.482;9.108;2022-10-23T03:21:51;7.60;;;2.07;;
21843;SDS011;11084;52.482;9.108;2022-10-23T03:24:19;5.77;;;2.17;;
21843;SDS011;11084;52.482;9.108;2022-10-23T03:26:45;3.93;;;2.73;;
21843;SDS011;11084;52.482;9.108;2022-10-23T03:29:11;4.20;;;1.80;;
21843;SDS011;11084;52.482;9.108;2022-10-23T03:31:44;3.57;;;2.30;;
21843;SDS011;11084;52.482;9.108;2022-10-23T03:34:11;4.70;;;2.73;;
21843;SDS011;11084;52.482;9.108;2022-10-23T03:36:39;7.37;;;2.30;;
21843;SDS011;11084;52.482;9.108;2022-10-23T03:39:07;6.03;;;2.30;;
21843;SDS011;11084;52.482;9.108;2022-10-23T03:41:33;6.40;;;2.27;;
21843;SDS011;11084;52.482;9.108;2022-10-23T03:43:59;3.70;;;2.10;;
21843;SDS011;11084;52.482;9.108;2022-10-23T03:46:25;4.10;;;2.23;;
21843;SDS011;11084;52.482;9.108;2022-10-23T03:48:53;8.63;;;2.20;;
21843;SDS011;11084;52.482;9.108;2022-10-23T03:51:23;3.07;;;2.07;;
21843;SDS011;11084;52.482;9.108;2022-10-23T03:53:49;5.47;;;2.70;;
21843;SDS011;11084;52.482;9.108;2022-10-23T03:56:16;3.17;;;2.07;;
21843;SDS011;11084;52.482;9.108;2022-10-23T03:58:43;8.90;;;2.10;;
21843;SDS011;11084;52.482;9.108;2022-10-23T04:01:09;3.13;;;2.43;;
21843;SDS011;11084;52.482;9.108;2022-10-23T04:03:38;6.43;;;2.10;;
21843;SDS011;11084;52.482;9.108;2022-10-23T04:06:05;3.77;;;2.20;;
21843;SDS011;11084;52.482;9.108;2022-10-23T04:08:31;17.10;;;2.33;;
21843;SDS011;11084;52.482;9.108;2022-10-23T04:10:57;6.73;;;3.13;;
21843;SDS011;11084;52.482;9.108;2022-10-23T04:13:40;5.63;;;1.97;;
21843;SDS011;11084;52.482;9.108;2022-10-23T04:16:07;10.20;;;2.20;;
21843;SDS011;11084;52.482;9.108;2022-10-23T04:18:33;2.93;;;2.10;;
21843;SDS011;11084;52.482;9.108;2022-10-23T04:21:00;2.43;;;2.00;;
21843;SDS011;11084;52.482;9.108;2022-10-23T04:23:26;5.53;;;2.37;;
21843;SDS011;11084;52.482;9.108;2022-10-23T04:25:56;2.40;;;1.83;;
21843;SDS011;11084;52.482;9.108;2022-10-23T04:28:23;2.23;;;2.00;;
21843;SDS011;11084;52.482;9.108;2022-10-23T04:30:50;7.83;;;2.57;;
21843;SDS011;11084;52.482;9.108;2022-10-23T04:33:17;6.00;;;2.43;;
21843;SDS011;11084;52.482;9.108;2022-10-23T04:35:48;7.27;;;2.30;;
21843;SDS011;11084;52.482;9.108;2022-10-23T04:38:15;2.83;;;2.20;;
21843;SDS011;11084;52.482;9.108;2022-10-23T04:40:42;5.50;;;2.63;;
21843;SDS011;11084;52.482;9.108;2022-10-23T04:43:08;7.13;;;2.33;;
21843;SDS011;11084;52.482;9.108;2022-10-23T04:45:37;2.73;;;2.20;;
21843;SDS011;11084;52.482;9.108;2022-10-23T04:48:04;7.40;;;2.33;;
21843;SDS011;11084;52.482;9.108;2022-10-23T04:50:56;3.37;;;2.07;;
21843;SDS011;11084;52.482;9.108;2022-10-23T04:53:42;2.80;;;2.10;;
21843;SDS011;11084;52.482;9.108;2022-10-23T04:56:26;2.77;;;1.90;;
21843;SDS011;11084;52.482;9.108;2022-10-23T04:59:00;7.30;;;2.50;;
21843;SDS011;11084;52.482;9.108;2022-10-23T05:01:27;3.07;;;1.93;;
21843;SDS011;11084;52.482;9.108;2022-10-23T05:03:58;3.47;;;2.40;;
21843;SDS011;11084;52.482;9.108;2022-10-23T05:06:24;4.50;;;2.10;;
21843;SDS011;11084;52.482;9.108;2022-10-23T05:09:17;2.90;;;2.00;;
21843;SDS011;11084;52.482;9.108;2022-10-23T05:12:03;3.03;;;2.37;;
21843;SDS011;11084;52.482;9.108;2022-10-23T05:14:29;7.67;;;2.03;;
21843;SDS011;11084;52.482;9.108;2022-10-23T05:16:57;4.80;;;2.10;;
21843;SDS011;11084;52.482;9.108;2022-10-23T05:19:34;6.93;;;2.13;;
21843;SDS011;11084;52.482;9.108;2022-10-23T05:22:06;5.10;;;1.97;;
21843;SDS011;11084;52.482;9.108;2022-10-23T05:24:51;12.10;;;2.67;;
21843;SDS011;11084;52.482;9.108;2022-10-23T05:27:21;2.93;;;2.00;;
21843;SDS011;11084;52.482;9.108;2022-10-23T05:29:50;16.50;;;2.80;;
21843;SDS011;11084;52.482;9.108;2022-10-23T05:32:19;7.93;;;2.23;;
21843;SDS011;11084;52.482;9.108;2022-10-23T05:34:46;5.30;;;1.83;;
21843;SDS011;11084;52.482;9.108;2022-10-23T05:37:13;7.13;;;2.13;;
21843;SDS011;11084;52.482;9.108;2022-10-23T05:39:41;13.17;;;2.10;;
21843;SDS011;11084;52.482;9.108;2022-10-23T05:42:11;4.03;;;2.10;;
21843;SDS011;11084;52.482;9.108;2022-10-23T05:44:39;3.83;;;2.20;;
21843;SDS011;11084;52.482;9.108;2022-10-23T05:47:42;3.80;;;1.97;;
21843;SDS011;11084;52.482;9.108;2022-10-23T05:50:44;9.30;;;1.73;;
21843;SDS011;11084;52.482;9.108;2022-10-23T05:53:16;2.23;;;1.80;;
21843;SDS011;11084;52.482;9.108;2022-10-23T05:56:08;2.63;;;2.03;;
21843;SDS011;11084;52.482;9.108;2022-10-23T05:58:42;8.60;;;2.00;;
21843;SDS011;11084;52.482;9.108;2022-10-23T06:01:26;6.83;;;1.90;;
21843;SDS011;11084;52.482;9.108;2022-10-23T06:04:04;4.57;;;1.97;;
21843;SDS011;11084;52.482;9.108;2022-10-23T06:07:06;2.30;;;1.87;;
21843;SDS011;11084;52.482;9.108;2022-10-23T06:09:32;4.50;;;2.50;;
21843;SDS011;11084;52.482;9.108;2022-10-23T06:12:00;8.20;;;2.20;;
21843;SDS011;11084;52.482;9.108;2022-10-23T06:14:29;5.47;;;2.40;;
21843;SDS011;11084;52.482;9.108;2022-10-23T06:16:56;7.13;;;1.93;;
21843;SDS011;11084;52.482;9.108;2022-10-23T06:19:23;3.43;;;1.83;;
21843;SDS011;11084;52.482;9.108;2022-10-23T06:21:53;5.37;;;1.63;;
21843;SDS011;11084;52.482;9.108;2022-10-23T06:24:25;10.33;;;2.40;;
21843;SDS011;11084;52.482;9.108;2022-10-23T06:26:57;1.97;;;1.77;;
21843;SDS011;11084;52.482;9.108;2022-10-23T06:29:43;5.50;;;1.90;;
21843;SDS011;11084;52.482;9.108;2022-10-23T06:32:10;6.03;;;2.30;;
21843;SDS011;11084;52.482;9.108;2022-10-23T06:34:40;5.60;;;2.10;;
21843;SDS011;11084;52.482;9.108;2022-10-23T06:37:07;6.40;;;1.60;;
21843;SDS011;11084;52.482;9.108;2022-10-23T06:39:40;3.50;;;1.90;;
21843;SDS011;11084;52.482;9.108;2022-10-23T06:42:21;13.93;;;2.17;;
21843;SDS011;11084;52.482;9.108;2022-10-23T06:45:10;2.67;;;1.97;;
21843;SDS011;11084;52.482;9.108;2022-10-23T06:47:42;4.53;;;2.40;;
21843;SDS011;11084;52.482;9.108;2022-10-23T06:50:20;4.33;;;2.30;;
21843;SDS011;11084;52.482;9.108;2022-10-23T06:52:47;4.00;;;2.20;;
21843;SDS011;11084;52.482;9.108;2022-10-23T06:55:15;6.33;;;2.20;;
21843;SDS011;11084;52.482;9.108;2022-10-23T06:57:42;5.27;;;2.00;;
21843;SDS011;11084;52.482;9.108;2022-10-23T07:00:09;6.37;;;2.57;;
21843;SDS011;11084;52.482;9.108;2022-10-23T07:02:50;12.00;;;2.33;;
21843;SDS011;11084;52.482;9.108;2022-10-23T07:05:18;6.47;;;2.37;;
21843;SDS011;11084;52.482;9.108;2022-10-23T07:07:45;13.47;;;2.43;;
21843;SDS011;11084;52.482;9.108;2022-10-23T07:10:17;4.63;;;2.43;;
21843;SDS011;11084;52.482;9.108;2022-10-23T07:12:46;11.30;;;2.13;;
21843;SDS011;11084;52.482;9.108;2022-10-23T07:15:48;11.77;;;2.53;;
21843;SDS011;11084;52.482;9.108;2022-10-23T07:18:21;10.23;;;2.47;;
21843;SDS011;11084;52.482;9.108;2022-10-23T07:21:13;11.47;;;2.40;;
21843;SDS011;11084;52.482;9.108;2022-10-23T07:23:41;6.97;;;2.70;;
21843;SDS011;11084;52.482;9.108;2022-10-23T07:26:09;10.80;;;2.63;;
21843;SDS011;11084;52.482;9.108;2022-10-23T07:28:45;4.53;;;2.07;;
21843;SDS011;11084;52.482;9.108;2022-10-23T07:31:16;7.03;;;2.03;;
21843;SDS011;11084;52.482;9.108;2022-10-23T07:34:03;8.63;;;2.60;;
21843;SDS011;11084;52.482;9.108;2022-10-23T07:36:30;16.43;;;2.50;;
21843;SDS011;11084;52.482;9.108;2022-10-23T07:38:57;6.77;;;2.27;;
21843;SDS011;11084;52.482;9.108;2022-10-23T07:41:23;7.27;;;2.30;;
21843;SDS011;11084;52.482;9.108;2022-10-23T07:43:50;10.20;;;2.53;;
21843;SDS011;11084;52.482;9.108;2022-10-23T07:46:16;7.63;;;2.30;;
21843;SDS011;11084;52.482;9.108;2022-10-23T07:48:42;11.73;;;2.73;;
21843;SDS011;11084;52.482;9.108;2022-10-23T07:51:13;9.63;;;2.50;;
21843;SDS011;11084;52.482;9.108;2022-10-23T07:53:46;2.63;;;2.33;;
21843;SDS011;11084;52.482;9.108;2022-10-23T07:56:38;7.90;;;2.03;;
21843;SDS011;11084;52.482;9.108;2022-10-23T07:59:24;6.50;;;2.70;;
21843;SDS011;11084;52.482;9.108;2022-10-23T08:01:52;3.30;;;2.33;;
21843;SDS011;11084;52.482;9.108;2022-10-23T08:04:27;5.80;;;2.30;;
21843;SDS011;11084;52.482;9.108;2022-10-23T08:07:00;10.80;;;2.90;;
21843;SDS011;11084;52.482;9.108;2022-10-23T08:09:30;3.77;;;2.17;;
21843;SDS011;11084;52.482;9.108;2022-10-23T08:11:59;4.50;;;2.27;;
21843;SDS011;11084;52.482;9.108;2022-10-23T08:14:26;5.73;;;2.80;;
21843;SDS011;11084;52.482;9.108;2022-10-23T08:16:54;5.40;;;2.13;;
21843;SDS011;11084;52.482;9.108;2022-10-23T08:19:39;5.53;;;2.13;;
21843;SDS011;11084;52.482;9.108;2022-10-23T08:22:11;4.43;;;2.10;;
21843;SDS011;11084;52.482;9.108;2022-10-23T08:24:37;3.20;;;2.30;;
21843;SDS011;11084;52.482;9.108;2022-10-23T08:27:04;7.73;;;2.47;;
21843;SDS011;11084;52.482;9.108;2022-10-23T08:29:38;11.47;;;2.23;;
21843;SDS011;11084;52.482;9.108;2022-10-23T08:32:04;2.57;;;1.97;;
21843;SDS011;11084;52.482;9.108;2022-10-23T08:34:49;3.70;;;2.00;;
21843;SDS011;11084;52.482;9.108;2022-10-23T08:37:16;4.77;;;2.13;;
21843;SDS011;11084;52.482;9.108;2022-10-23T08:39:44;2.53;;;1.90;;
21843;SDS011;11084;52.482;9.108;2022-10-23T08:42:18;4.27;;;2.53;;
21843;SDS011;11084;52.482;9.108;2022-10-23T08:52:53;4.33;;;2.13;;
21843;SDS011;11084;52.482;9.108;2022-10-23T08:55:45;4.47;;;1.90;;
21843;SDS011;11084;52.482;9.108;2022-10-23T08:58:22;8.17;;;2.27;;
21843;SDS011;11084;52.482;9.108;2022-10-23T09:01:01;9.77;;;2.00;;
21843;SDS011;11084;52.482;9.108;2022-10-23T09:03:50;11.63;;;2.47;;
21843;SDS011;11084;52.482;9.108;2022-10-23T09:06:24;4.20;;;1.90;;
21843;SDS011;11084;52.482;9.108;2022-10-23T09:11:45;4.87;;;1.90;;
21843;SDS011;11084;52.482;9.108;2022-10-23T09:17:29;6.73;;;1.60;;
21843;SDS011;11084;52.482;9.108;2022-10-23T09:20:20;12.50;;;2.03;;
21843;SDS011;11084;52.482;9.108;2022-10-23T09:22:54;3.57;;;1.70;;
21843;SDS011;11084;52.482;9.108;2022-10-23T09:25:30;4.73;;;1.90;;
21843;SDS011;11084;52.482;9.108;2022-10-23T09:28:01;4.60;;;2.10;;
21843;SDS011;11084;52.482;9.108;2022-10-23T09:30:29;10.63;;;1.90;;
21843;SDS011;11084;52.482;9.108;2022-10-23T09:33:00;5.87;;;2.10;;
21843;SDS011;11084;52.482;9.108;2022-10-23T09:38:49;3.20;;;1.53;;
21843;SDS011;11084;52.482;9.108;2022-10-23T09:41:23;3.90;;;1.50;;
21843;SDS011;11084;52.482;9.108;2022-10-23T09:44:01;11.57;;;1.70;;
21843;SDS011;11084;52.482;9.108;2022-10-23T09:46:54;3.57;;;1.77;;
21843;SDS011;11084;52.482;9.108;2022-10-23T09:49:26;5.57;;;2.00;;
21843;SDS011;11084;52.482;9.108;2022-10-23T09:54:38;2.77;;;1.60;;
21843;SDS011;11084;52.482;9.108;2022-10-23T09:59:42;5.93;;;1.60;;
21843;SDS011;11084;52.482;9.108;2022-10-23T10:02:18;4.53;;;1.80;;
21843;SDS011;11084;52.482;9.108;2022-10-23T10:05:26;6.13;;;2.13;;
21843;SDS011;11084;52.482;9.108;2022-10-23T10:10:33;3.90;;;1.87;;
21843;SDS011;11084;52.482;9.108;2022-10-23T10:13:13;4.97;;;1.97;;
21843;SDS011;11084;52.482;9.108;2022-10-23T10:15:54;3.27;;;1.57;;
21843;SDS011;11084;52.482;9.108;2022-10-23T10:18:37;3.57;;;1.50;;
21843;SDS011;11084;52.482;9.108;2022-10-23T10:30:21;4.57;;;1.60;;
21843;SDS011;11084;52.482;9.108;2022-10-23T10:38:28;4.23;;;1.60;;
21843;SDS011;11084;52.482;9.108;2022-10-23T10:49:30;8.17;;;1.60;;
21843;SDS011;11084;52.482;9.108;2022-10-23T10:53:13;2.00;;;1.33;;
21843;SDS011;11084;52.482;9.108;2022-10-23T10:55:48;4.20;;;1.60;;
21843;SDS011;11084;52.482;9.108;2022-10-23T10:58:38;5.30;;;1.70;;
21843;SDS011;11084;52.482;9.108;2022-10-23T11:01:53;3.43;;;1.30;;
21843;SDS011;11084;52.482;9.108;2022-10-23T11:04:45;3.77;;;1.23;;
21843;SDS011;11084;52.482;9.108;2022-10-23T11:07:24;5.60;;;1.40;;
21843;SDS011;11084;52.482;9.108;2022-10-23T11:10:02;2.47;;;1.00;;
21843;SDS011;11084;52.482;9.108;2022-10-23T11:12:38;2.53;;;1.10;;
21843;SDS011;11084;52.482;9.108;2022-10-23T11:15:10;1.60;;;1.03;;
21843;SDS011;11084;52.482;9.108;2022-10-23T11:17:58;3.30;;;1.20;;
21843;SDS011;11084;52.482;9.108;2022-10-23T11:20:36;2.70;;;1.13;;
21843;SDS011;11084;52.482;9.108;2022-10-23T11:26:19;1.47;;;0.83;;
21843;SDS011;11084;52.482;9.108;2022-10-23T11:29:21;1.70;;;0.97;;
21843;SDS011;11084;52.482;9.108;2022-10-23T11:37:38;12.23;;;1.00;;
21843;SDS011;11084;52.482;9.108;2022-10-23T11:48:04;3.53;;;1.00;;
21843;SDS011;11084;52.482;9.108;2022-10-23T11:51:03;2.70;;;0.80;;
21843;SDS011;11084;52.482;9.108;2022-10-23T11:55:59;2.10;;;0.90;;
21843;SDS011;11084;52.482;9.108;2022-10-23T12:06:38;7.57;;;1.00;;
21843;SDS011;11084;52.482;9.108;2022-10-23T12:14:37;1.37;;;0.77;;
21843;SDS011;11084;52.482;9.108;2022-10-23T12:19:49;0.77;;;0.67;;
21843;SDS011;11084;52.482;9.108;2022-10-23T12:28:32;6.33;;;0.83;;
21843;SDS011;11084;52.482;9.108;2022-10-23T12:40:13;1.20;;;0.67;;
21843;SDS011;11084;52.482;9.108;2022-10-23T12:42:39;2.33;;;0.90;;
21843;SDS011;11084;52.482;9.108;2022-10-23T12:47:34;1.10;;;0.80;;
21843;SDS011;11084;52.482;9.108;2022-10-23T12:50:01;1.50;;;0.70;;
21843;SDS011;11084;52.482;9.108;2022-10-23T12:52:27;6.33;;;1.07;;
21843;SDS011;11084;52.482;9.108;2022-10-23T12:54:53;2.53;;;1.03;;
21843;SDS011;11084;52.482;9.108;2022-10-23T12:57:26;2.17;;;0.87;;
21843;SDS011;11084;52.482;9.108;2022-10-23T13:00:00;5.80;;;0.80;;
21843;SDS011;11084;52.482;9.108;2022-10-23T13:02:36;2.73;;;0.67;;
21843;SDS011;11084;52.482;9.108;2022-10-23T13:05:04;1.10;;;0.83;;
21843;SDS011;11084;52.482;9.108;2022-10-23T13:07:33;3.07;;;1.00;;
21843;SDS011;11084;52.482;9.108;2022-10-23T13:10:04;0.80;;;0.80;;
21843;SDS011;11084;52.482;9.108;2022-10-23T13:12:34;2.57;;;1.10;;
21843;SDS011;11084;52.482;9.108;2022-10-23T13:20:35;11.07;;;1.37;;
21843;SDS011;11084;52.482;9.108;2022-10-23T13:26:02;3.73;;;0.90;;
21843;SDS011;11084;52.482;9.108;2022-10-23T13:28:45;4.70;;;0.93;;
21843;SDS011;11084;52.482;9.108;2022-10-23T13:38:44;2.20;;;1.43;;
21843;SDS011;11084;52.482;9.108;2022-10-23T13:41:36;2.80;;;0.83;;
21843;SDS011;11084;52.482;9.108;2022-10-23T13:44:13;1.40;;;0.80;;
21843;SDS011;11084;52.482;9.108;2022-10-23T13:46:43;2.60;;;1.00;;
21843;SDS011;11084;52.482;9.108;2022-10-23T13:49:10;2.83;;;1.00;;
21843;SDS011;11084;52.482;9.108;2022-10-23T13:51:40;5.53;;;1.20;;
21843;SDS011;11084;52.482;9.108;2022-10-23T13:54:20;1.30;;;0.80;;
21843;SDS011;11084;52.482;9.108;2022-10-23T13:56:49;5.17;;;1.20;;
21843;SDS011;11084;52.482;9.108;2022-10-23T13:59:16;7.73;;;1.00;;
21843;SDS011;11084;52.482;9.108;2022-10-23T14:01:42;7.20;;;1.10;;
21843;SDS011;11084;52.482;9.108;2022-10-23T14:04:09;4.83;;;1.10;;
21843;SDS011;11084;52.482;9.108;2022-10-23T14:06:37;1.70;;;0.77;;
21843;SDS011;11084;52.482;9.108;2022-10-23T14:09:04;1.20;;;0.87;;
21843;SDS011;11084;52.482;9.108;2022-10-23T14:11:33;1.10;;;1.00;;
21843;SDS011;11084;52.482;9.108;2022-10-23T14:13:59;2.37;;;0.80;;
21843;SDS011;11084;52.482;9.108;2022-10-23T14:16:25;5.90;;;0.93;;
21843;SDS011;11084;52.482;9.108;2022-10-23T14:18:52;4.57;;;1.00;;
21843;SDS011;11084;52.482;9.108;2022-10-23T14:21:19;8.90;;;1.13;;
21843;SDS011;11084;52.482;9.108;2022-10-23T14:23:46;6.67;;;1.00;;
21843;SDS011;11084;52.482;9.108;2022-10-23T14:26:14;5.17;;;1.20;;
21843;SDS011;11084;52.482;9.108;2022-10-23T14:28:43;2.50;;;1.03;;
21843;SDS011;11084;52.482;9.108;2022-10-23T14:31:11;2.90;;;0.80;;
21843;SDS011;11084;52.482;9.108;2022-10-23T14:33:42;2.10;;;1.23;;
21843;SDS011;11084;52.482;9.108;2022-10-23T14:36:10;2.77;;;0.80;;
21843;SDS011;11084;52.482;9.108;2022-10-23T14:38:36;7.70;;;1.10;;
21843;SDS011;11084;52.482;9.108;2022-10-23T14:41:08;1.77;;;0.83;;
21843;SDS011;11084;52.482;9.108;2022-10-23T14:43:36;5.90;;;0.90;;
21843;SDS011;11084;52.482;9.108;2022-10-23T14:46:09;7.47;;;0.80;;
21843;SDS011;11084;52.482;9.108;2022-10-23T14:48:38;2.93;;;0.70;;
21843;SDS011;11084;52.482;9.108;2022-10-23T14:51:05;3.70;;;1.00;;
21843;SDS011;11084;52.482;9.108;2022-10-23T14:53:40;1.97;;;0.80;;
21843;SDS011;11084;52.482;9.108;2022-10-23T14:56:07;1.27;;;0.70;;
21843;SDS011;11084;52.482;9.108;2022-10-23T14:58:35;5.23;;;1.00;;
21843;SDS011;11084;52.482;9.108;2022-10-23T15:01:01;4.93;;;0.83;;
21843;SDS011;11084;52.482;9.108;2022-10-23T15:03:27;3.80;;;0.77;;
21843;SDS011;11084;52.482;9.108;2022-10-23T15:05:53;2.03;;;0.70;;
21843;SDS011;11084;52.482;9.108;2022-10-23T15:08:20;5.40;;;0.70;;
21843;SDS011;11084;52.482;9.108;2022-10-23T15:10:48;5.77;;;0.80;;
21843;SDS011;11084;52.482;9.108;2022-10-23T15:13:14;2.23;;;1.00;;
21843;SDS011;11084;52.482;9.108;2022-10-23T15:15:42;8.77;;;1.07;;
21843;SDS011;11084;52.482;9.108;2022-10-23T15:18:08;1.73;;;0.97;;
21843;SDS011;11084;52.482;9.108;2022-10-23T15:20:34;1.60;;;0.80;;
21843;SDS011;11084;52.482;9.108;2022-10-23T15:23:00;1.07;;;0.73;;
21843;SDS011;11084;52.482;9.108;2022-10-23T15:25:27;2.67;;;0.90;;
21843;SDS011;11084;52.482;9.108;2022-10-23T15:27:53;1.17;;;0.80;;
21843;SDS011;11084;52.482;9.108;2022-10-23T15:30:20;4.10;;;0.70;;
21843;SDS011;11084;52.482;9.108;2022-10-23T15:32:46;4.57;;;1.00;;
21843;SDS011;11084;52.482;9.108;2022-10-23T15:35:12;1.20;;;0.73;;
21843;SDS011;11084;52.482;9.108;2022-10-23T15:37:38;2.20;;;0.80;;
21843;SDS011;11084;52.482;9.108;2022-10-23T15:40:04;2.40;;;0.87;;
21843;SDS011;11084;52.482;9.108;2022-10-23T15:42:31;2.73;;;1.00;;
21843;SDS011;11084;52.482;9.108;2022-10-23T15:44:57;1.93;;;1.10;;
21843;SDS011;11084;52.482;9.108;2022-10-23T15:47:23;1.80;;;1.30;;
21843;SDS011;11084;52.482;9.108;2022-10-23T15:49:49;3.30;;;0.93;;
21843;SDS011;11084;52.482;9.108;2022-10-23T15:52:15;6.33;;;1.10;;
21843;SDS011;11084;52.482;9.108;2022-10-23T15:54:41;1.17;;;0.93;;
21843;SDS011;11084;52.482;9.108;2022-10-23T15:57:08;6.03;;;1.20;;
21843;SDS011;11084;52.482;9.108;2022-10-23T15:59:35;1.80;;;1.23;;
21843;SDS011;11084;52.482;9.108;2022-10-23T16:02:01;1.70;;;1.10;;
21843;SDS011;11084;52.482;9.108;2022-10-23T16:04:27;1.20;;;0.90;;
21843;SDS011;11084;52.482;9.108;2022-10-23T16:06:54;1.03;;;0.93;;
21843;SDS011;11084;52.482;9.108;2022-10-23T16:09:20;5.93;;;1.00;;
21843;SDS011;11084;52.482;9.108;2022-10-23T16:11:46;3.17;;;0.80;;
21843;SDS011;11084;52.482;9.108;2022-10-23T16:14:13;1.10;;;0.83;;
21843;SDS011;11084;52.482;9.108;2022-10-23T16:16:41;1.40;;;1.00;;
21843;SDS011;11084;52.482;9.108;2022-10-23T16:19:08;0.80;;;0.80;;
21843;SDS011;11084;52.482;9.108;2022-10-23T16:21:35;4.17;;;1.00;;
21843;SDS011;11084;52.482;9.108;2022-10-23T16:24:02;8.63;;;1.63;;
21843;SDS011;11084;52.482;9.108;2022-10-23T16:26:30;8.27;;;1.00;;
21843;SDS011;11084;52.482;9.108;2022-10-23T16:28:58;2.63;;;0.73;;
21843;SDS011;11084;52.482;9.108;2022-10-23T16:31:27;2.50;;;1.00;;
21843;SDS011;11084;52.482;9.108;2022-10-23T16:33:55;2.63;;;1.10;;
21843;SDS011;11084;52.482;9.108;2022-10-23T16:36:24;5.17;;;1.00;;
21843;SDS011;11084;52.482;9.108;2022-10-23T16:39:07;4.60;;;0.97;;
21843;SDS011;11084;52.482;9.108;2022-10-23T16:41:57;1.33;;;1.00;;
21843;SDS011;11084;52.482;9.108;2022-10-23T16:44:32;3.67;;;1.07;;
21843;SDS011;11084;52.482;9.108;2022-10-23T16:47:02;2.97;;;1.10;;
21843;SDS011;11084;52.482;9.108;2022-10-23T16:49:28;1.47;;;1.00;;
21843;SDS011;11084;52.482;9.108;2022-10-23T16:51:56;1.10;;;1.00;;
21843;SDS011;11084;52.482;9.108;2022-10-23T16:54:22;5.27;;;1.03;;
21843;SDS011;11084;52.482;9.108;2022-10-23T16:56:48;3.10;;;1.43;;
21843;SDS011;11084;52.482;9.108;2022-10-23T16:59:14;3.03;;;1.10;;
21843;SDS011;11084;52.482;9.108;2022-10-23T17:01:41;4.37;;;1.10;;
21843;SDS011;11084;52.482;9.108;2022-10-23T17:04:07;3.27;;;1.13;;
21843;SDS011;11084;52.482;9.108;2022-10-23T17:06:33;3.73;;;1.03;;
21843;SDS011;11084;52.482;9.108;2022-10-23T17:09:00;4.53;;;1.13;;
21843;SDS011;11084;52.482;9.108;2022-10-23T17:11:39;1.77;;;1.20;;
21843;SDS011;11084;52.482;9.108;2022-10-23T17:14:06;3.40;;;1.07;;
21843;SDS011;11084;52.482;9.108;2022-10-23T17:16:42;3.33;;;1.20;;
21843;SDS011;11084;52.482;9.108;2022-10-23T17:19:10;3.03;;;1.27;;
21843;SDS011;11084;52.482;9.108;2022-10-23T17:21:39;1.30;;;1.20;;
21843;SDS011;11084;52.482;9.108;2022-10-23T17:24:06;1.57;;;0.80;;
21843;SDS011;11084;52.482;9.108;2022-10-23T17:26:33;4.10;;;1.00;;
21843;SDS011;11084;52.482;9.108;2022-10-23T17:29:00;0.90;;;0.90;;